sensor_id;sensor_type;location;lat;lon;timestamp;P1;durP1;ratioP1;P2;durP2;ratioP2
37945;SDS011;23769;52.478;13.448;2023-03-13T00:00:05;20.52;;;7.60;;
37945;SDS011;23769;52.478;13.448;2023-03-13T00:02:33;11.45;;;6.07;;
37945;SDS011;23769;52.478;13.448;2023-03-13T00:05:00;17.20;;;6.28;;
37945;SDS011;23769;52.478;13.448;2023-03-13T00:07:27;15.27;;;6.55;;
37945;SDS011;23769;52.478;13.448;2023-03-13T00:09:54;16.05;;;6.75;;
37945;SDS011;23769;52.478;13.448;2023-03-13T00:12:24;14.55;;;6.22;;
37945;SDS011;23769;52.478;13.448;2023-03-13T00:14:51;13.60;;;6.78;;
37945;SDS011;23769;52.478;13.448;2023-03-13T00:17:19;17.45;;;7.30;;
37945;SDS011;23769;52.478;13.448;2023-03-13T00:19:46;13.15;;;6.85;;
37945;SDS011;23769;52.478;13.448;2023-03-13T00:22:13;13.82;;;6.70;;
37945;SDS011;23769;52.478;13.448;2023-03-13T00:24:40;18.08;;;6.82;;
37945;SDS011;23769;52.478;13.448;2023-03-13T00:27:07;14.75;;;6.18;;
37945;SDS011;23769;52.478;13.448;2023-03-13T00:29:36;16.95;;;7.28;;
37945;SDS011;23769;52.478;13.448;2023-03-13T00:32:03;16.67;;;7.15;;
37945;SDS011;23769;52.478;13.448;2023-03-13T00:34:30;13.90;;;6.15;;
37945;SDS011;23769;52.478;13.448;2023-03-13T00:36:58;18.30;;;6.90;;
37945;SDS011;23769;52.478;13.448;2023-03-13T00:39:25;16.95;;;6.75;;
37945;SDS011;23769;52.478;13.448;2023-03-13T00:41:52;16.67;;;7.13;;
37945;SDS011;23769;52.478;13.448;2023-03-13T00:44:19;19.45;;;7.25;;
37945;SDS011;23769;52.478;13.448;2023-03-13T00:46:48;14.05;;;6.40;;
37945;SDS011;23769;52.478;13.448;2023-03-13T00:49:15;16.63;;;6.38;;
37945;SDS011;23769;52.478;13.448;2023-03-13T00:51:42;14.80;;;6.65;;
37945;SDS011;23769;52.478;13.448;2023-03-13T00:54:09;19.13;;;7.80;;
37945;SDS011;23769;52.478;13.448;2023-03-13T00:56:36;21.05;;;7.20;;
37945;SDS011;23769;52.478;13.448;2023-03-13T00:59:04;17.35;;;6.95;;
37945;SDS011;23769;52.478;13.448;2023-03-13T01:01:31;13.85;;;7.38;;
37945;SDS011;23769;52.478;13.448;2023-03-13T01:04:01;14.52;;;6.97;;
37945;SDS011;23769;52.478;13.448;2023-03-13T01:06:29;16.02;;;6.70;;
37945;SDS011;23769;52.478;13.448;2023-03-13T01:08:56;14.68;;;7.22;;
37945;SDS011;23769;52.478;13.448;2023-03-13T01:11:24;18.23;;;7.80;;
37945;SDS011;23769;52.478;13.448;2023-03-13T01:13:53;14.68;;;7.13;;
37945;SDS011;23769;52.478;13.448;2023-03-13T01:16:21;17.42;;;8.32;;
37945;SDS011;23769;52.478;13.448;2023-03-13T01:18:49;19.83;;;8.10;;
37945;SDS011;23769;52.478;13.448;2023-03-13T01:21:18;14.85;;;8.25;;
37945;SDS011;23769;52.478;13.448;2023-03-13T01:23:47;15.35;;;7.53;;
37945;SDS011;23769;52.478;13.448;2023-03-13T01:26:14;14.50;;;6.93;;
37945;SDS011;23769;52.478;13.448;2023-03-13T01:28:41;16.70;;;7.07;;
37945;SDS011;23769;52.478;13.448;2023-03-13T01:31:09;16.13;;;6.65;;
37945;SDS011;23769;52.478;13.448;2023-03-13T01:33:37;14.93;;;7.10;;
37945;SDS011;23769;52.478;13.448;2023-03-13T01:36:04;17.00;;;6.97;;
37945;SDS011;23769;52.478;13.448;2023-03-13T01:38:33;17.98;;;6.93;;
37945;SDS011;23769;52.478;13.448;2023-03-13T01:41:00;17.55;;;7.45;;
37945;SDS011;23769;52.478;13.448;2023-03-13T01:43:28;14.48;;;6.65;;
37945;SDS011;23769;52.478;13.448;2023-03-13T01:46:00;14.48;;;6.78;;
37945;SDS011;23769;52.478;13.448;2023-03-13T01:48:32;12.88;;;7.05;;
37945;SDS011;23769;52.478;13.448;2023-03-13T01:51:02;16.08;;;7.80;;
37945;SDS011;23769;52.478;13.448;2023-03-13T01:53:30;14.88;;;7.75;;
37945;SDS011;23769;52.478;13.448;2023-03-13T01:56:00;17.33;;;7.60;;
37945;SDS011;23769;52.478;13.448;2023-03-13T01:58:31;19.80;;;7.55;;
37945;SDS011;23769;52.478;13.448;2023-03-13T02:00:59;15.02;;;7.20;;
37945;SDS011;23769;52.478;13.448;2023-03-13T02:03:26;15.95;;;7.32;;
37945;SDS011;23769;52.478;13.448;2023-03-13T02:05:54;15.35;;;7.65;;
37945;SDS011;23769;52.478;13.448;2023-03-13T02:08:22;15.68;;;7.72;;
37945;SDS011;23769;52.478;13.448;2023-03-13T02:10:52;17.30;;;8.07;;
37945;SDS011;23769;52.478;13.448;2023-03-13T02:13:23;14.65;;;7.45;;
37945;SDS011;23769;52.478;13.448;2023-03-13T02:15:51;17.42;;;7.63;;
37945;SDS011;23769;52.478;13.448;2023-03-13T02:27:12;17.65;;;8.90;;
37945;SDS011;23769;52.478;13.448;2023-03-13T02:32:34;13.85;;;7.72;;
37945;SDS011;23769;52.478;13.448;2023-03-13T02:35:20;12.45;;;7.03;;
37945;SDS011;23769;52.478;13.448;2023-03-13T02:50:01;14.00;;;6.55;;
37945;SDS011;23769;52.478;13.448;2023-03-13T02:52:29;19.77;;;7.60;;
37945;SDS011;23769;52.478;13.448;2023-03-13T02:54:57;16.67;;;7.03;;
37945;SDS011;23769;52.478;13.448;2023-03-13T02:57:26;14.25;;;6.30;;
37945;SDS011;23769;52.478;13.448;2023-03-13T02:59:53;17.52;;;6.93;;
37945;SDS011;23769;52.478;13.448;2023-03-13T03:02:20;13.02;;;5.68;;
37945;SDS011;23769;52.478;13.448;2023-03-13T03:04:47;18.35;;;6.80;;
37945;SDS011;23769;52.478;13.448;2023-03-13T03:07:16;14.55;;;6.30;;
37945;SDS011;23769;52.478;13.448;2023-03-13T03:09:43;15.82;;;6.22;;
37945;SDS011;23769;52.478;13.448;2023-03-13T03:12:10;11.30;;;5.63;;
37945;SDS011;23769;52.478;13.448;2023-03-13T03:14:37;14.60;;;5.60;;
37945;SDS011;23769;52.478;13.448;2023-03-13T03:17:05;16.48;;;5.88;;
37945;SDS011;23769;52.478;13.448;2023-03-13T03:19:32;14.55;;;5.72;;
37945;SDS011;23769;52.478;13.448;2023-03-13T03:21:59;17.77;;;5.40;;
37945;SDS011;23769;52.478;13.448;2023-03-13T03:24:27;14.40;;;5.53;;
37945;SDS011;23769;52.478;13.448;2023-03-13T03:26:55;16.15;;;5.63;;
37945;SDS011;23769;52.478;13.448;2023-03-13T03:29:22;12.95;;;5.38;;
37945;SDS011;23769;52.478;13.448;2023-03-13T03:31:49;14.05;;;4.72;;
37945;SDS011;23769;52.478;13.448;2023-03-13T03:34:16;10.93;;;4.53;;
37945;SDS011;23769;52.478;13.448;2023-03-13T03:36:43;12.70;;;4.15;;
37945;SDS011;23769;52.478;13.448;2023-03-13T03:39:11;9.85;;;5.05;;
37945;SDS011;23769;52.478;13.448;2023-03-13T03:41:39;15.95;;;4.28;;
37945;SDS011;23769;52.478;13.448;2023-03-13T03:44:06;12.55;;;4.53;;
37945;SDS011;23769;52.478;13.448;2023-03-13T03:46:34;15.32;;;4.32;;
37945;SDS011;23769;52.478;13.448;2023-03-13T03:49:01;11.75;;;3.50;;
37945;SDS011;23769;52.478;13.448;2023-03-13T03:51:28;13.23;;;4.00;;
37945;SDS011;23769;52.478;13.448;2023-03-13T03:53:56;13.85;;;4.30;;
37945;SDS011;23769;52.478;13.448;2023-03-13T03:56:23;12.82;;;3.75;;
37945;SDS011;23769;52.478;13.448;2023-03-13T03:58:51;16.83;;;4.50;;
37945;SDS011;23769;52.478;13.448;2023-03-13T04:01:18;16.10;;;4.50;;
37945;SDS011;23769;52.478;13.448;2023-03-13T04:03:46;17.08;;;4.20;;
37945;SDS011;23769;52.478;13.448;2023-03-13T04:06:13;12.05;;;4.60;;
37945;SDS011;23769;52.478;13.448;2023-03-13T04:08:40;12.93;;;3.67;;
37945;SDS011;23769;52.478;13.448;2023-03-13T04:11:07;12.30;;;3.75;;
37945;SDS011;23769;52.478;13.448;2023-03-13T04:13:34;16.02;;;4.20;;
37945;SDS011;23769;52.478;13.448;2023-03-13T04:16:06;17.20;;;4.50;;
37945;SDS011;23769;52.478;13.448;2023-03-13T04:18:34;13.50;;;3.53;;
37945;SDS011;23769;52.478;13.448;2023-03-13T04:21:01;17.23;;;4.38;;
37945;SDS011;23769;52.478;13.448;2023-03-13T04:23:29;14.85;;;3.72;;
37945;SDS011;23769;52.478;13.448;2023-03-13T04:25:56;18.05;;;4.22;;
37945;SDS011;23769;52.478;13.448;2023-03-13T04:28:23;13.55;;;3.90;;
37945;SDS011;23769;52.478;13.448;2023-03-13T04:30:50;12.07;;;3.60;;
37945;SDS011;23769;52.478;13.448;2023-03-13T04:33:22;19.48;;;4.72;;
37945;SDS011;23769;52.478;13.448;2023-03-13T04:35:49;13.15;;;3.80;;
37945;SDS011;23769;52.478;13.448;2023-03-13T04:38:16;14.40;;;3.70;;
37945;SDS011;23769;52.478;13.448;2023-03-13T04:40:44;14.82;;;3.90;;
37945;SDS011;23769;52.478;13.448;2023-03-13T04:43:12;14.88;;;3.47;;
37945;SDS011;23769;52.478;13.448;2023-03-13T04:45:39;15.57;;;3.63;;
37945;SDS011;23769;52.478;13.448;2023-03-13T04:48:06;16.45;;;3.85;;
37945;SDS011;23769;52.478;13.448;2023-03-13T04:50:34;18.70;;;4.10;;
37945;SDS011;23769;52.478;13.448;2023-03-13T04:53:02;15.70;;;4.13;;
37945;SDS011;23769;52.478;13.448;2023-03-13T04:55:29;15.77;;;4.45;;
37945;SDS011;23769;52.478;13.448;2023-03-13T04:57:56;16.23;;;3.95;;
37945;SDS011;23769;52.478;13.448;2023-03-13T05:00:24;12.00;;;3.95;;
37945;SDS011;23769;52.478;13.448;2023-03-13T05:02:53;15.40;;;4.13;;
37945;SDS011;23769;52.478;13.448;2023-03-13T05:05:21;14.50;;;4.68;;
37945;SDS011;23769;52.478;13.448;2023-03-13T05:07:49;20.30;;;4.47;;
37945;SDS011;23769;52.478;13.448;2023-03-13T05:10:16;21.10;;;5.80;;
37945;SDS011;23769;52.478;13.448;2023-03-13T05:12:46;16.02;;;3.50;;
37945;SDS011;23769;52.478;13.448;2023-03-13T05:15:14;17.80;;;4.43;;
37945;SDS011;23769;52.478;13.448;2023-03-13T05:17:41;16.35;;;3.80;;
37945;SDS011;23769;52.478;13.448;2023-03-13T05:20:08;19.42;;;4.45;;
37945;SDS011;23769;52.478;13.448;2023-03-13T05:22:36;17.20;;;4.38;;
37945;SDS011;23769;52.478;13.448;2023-03-13T05:25:05;17.48;;;4.15;;
37945;SDS011;23769;52.478;13.448;2023-03-13T05:27:32;17.42;;;4.43;;
37945;SDS011;23769;52.478;13.448;2023-03-13T05:29:59;14.40;;;4.35;;
37945;SDS011;23769;52.478;13.448;2023-03-13T05:32:26;17.83;;;4.40;;
37945;SDS011;23769;52.478;13.448;2023-03-13T05:34:54;20.05;;;4.18;;
37945;SDS011;23769;52.478;13.448;2023-03-13T05:37:21;19.35;;;4.35;;
37945;SDS011;23769;52.478;13.448;2023-03-13T05:39:48;15.35;;;3.97;;
37945;SDS011;23769;52.478;13.448;2023-03-13T05:42:17;17.92;;;4.95;;
37945;SDS011;23769;52.478;13.448;2023-03-13T05:44:46;16.80;;;4.53;;
37945;SDS011;23769;52.478;13.448;2023-03-13T05:47:13;21.73;;;4.82;;
37945;SDS011;23769;52.478;13.448;2023-03-13T05:49:41;20.75;;;4.47;;
37945;SDS011;23769;52.478;13.448;2023-03-13T05:52:08;20.90;;;5.18;;
37945;SDS011;23769;52.478;13.448;2023-03-13T05:54:35;19.05;;;4.68;;
37945;SDS011;23769;52.478;13.448;2023-03-13T05:57:02;16.58;;;4.90;;
37945;SDS011;23769;52.478;13.448;2023-03-13T05:59:31;19.38;;;4.90;;
37945;SDS011;23769;52.478;13.448;2023-03-13T06:01:58;19.40;;;4.90;;
37945;SDS011;23769;52.478;13.448;2023-03-13T06:04:25;21.88;;;4.25;;
37945;SDS011;23769;52.478;13.448;2023-03-13T06:06:53;23.63;;;5.32;;
37945;SDS011;23769;52.478;13.448;2023-03-13T06:09:20;18.70;;;4.85;;
37945;SDS011;23769;52.478;13.448;2023-03-13T06:11:47;21.67;;;4.75;;
37945;SDS011;23769;52.478;13.448;2023-03-13T06:14:14;21.48;;;4.85;;
37945;SDS011;23769;52.478;13.448;2023-03-13T06:16:43;19.83;;;4.93;;
37945;SDS011;23769;52.478;13.448;2023-03-13T06:19:10;16.30;;;4.10;;
37945;SDS011;23769;52.478;13.448;2023-03-13T06:21:38;19.52;;;3.67;;
37945;SDS011;23769;52.478;13.448;2023-03-13T06:24:05;22.17;;;4.57;;
37945;SDS011;23769;52.478;13.448;2023-03-13T06:26:32;16.90;;;4.32;;
37945;SDS011;23769;52.478;13.448;2023-03-13T06:28:59;19.35;;;4.07;;
37945;SDS011;23769;52.478;13.448;2023-03-13T06:31:27;16.80;;;4.28;;
37945;SDS011;23769;52.478;13.448;2023-03-13T06:33:55;20.10;;;4.45;;
37945;SDS011;23769;52.478;13.448;2023-03-13T06:36:23;15.02;;;4.25;;
37945;SDS011;23769;52.478;13.448;2023-03-13T06:38:50;17.05;;;4.20;;
37945;SDS011;23769;52.478;13.448;2023-03-13T06:41:17;23.73;;;4.55;;
37945;SDS011;23769;52.478;13.448;2023-03-13T06:43:44;21.35;;;4.82;;
37945;SDS011;23769;52.478;13.448;2023-03-13T06:46:15;13.93;;;4.20;;
37945;SDS011;23769;52.478;13.448;2023-03-13T06:48:42;21.10;;;5.32;;
37945;SDS011;23769;52.478;13.448;2023-03-13T06:51:12;21.17;;;5.68;;
37945;SDS011;23769;52.478;13.448;2023-03-13T06:53:39;18.27;;;5.05;;
37945;SDS011;23769;52.478;13.448;2023-03-13T06:56:06;21.25;;;4.85;;
37945;SDS011;23769;52.478;13.448;2023-03-13T06:58:34;19.98;;;4.32;;
37945;SDS011;23769;52.478;13.448;2023-03-13T07:01:04;16.25;;;4.90;;
37945;SDS011;23769;52.478;13.448;2023-03-13T07:03:32;20.60;;;4.70;;
37945;SDS011;23769;52.478;13.448;2023-03-13T07:05:59;18.30;;;4.32;;
37945;SDS011;23769;52.478;13.448;2023-03-13T07:08:28;17.70;;;4.47;;
37945;SDS011;23769;52.478;13.448;2023-03-13T07:10:57;18.70;;;4.18;;
37945;SDS011;23769;52.478;13.448;2023-03-13T07:13:24;16.92;;;5.10;;
37945;SDS011;23769;52.478;13.448;2023-03-13T07:15:53;13.43;;;4.15;;
37945;SDS011;23769;52.478;13.448;2023-03-13T07:18:21;19.90;;;4.43;;
37945;SDS011;23769;52.478;13.448;2023-03-13T07:20:52;18.05;;;3.70;;
37945;SDS011;23769;52.478;13.448;2023-03-13T07:23:19;19.80;;;4.18;;
37945;SDS011;23769;52.478;13.448;2023-03-13T07:25:53;16.75;;;3.92;;
37945;SDS011;23769;52.478;13.448;2023-03-13T07:28:20;18.90;;;4.40;;
37945;SDS011;23769;52.478;13.448;2023-03-13T07:30:47;14.23;;;3.85;;
37945;SDS011;23769;52.478;13.448;2023-03-13T07:33:15;16.58;;;3.72;;
37945;SDS011;23769;52.478;13.448;2023-03-13T07:35:46;22.17;;;4.38;;
37945;SDS011;23769;52.478;13.448;2023-03-13T07:38:14;19.70;;;4.95;;
37945;SDS011;23769;52.478;13.448;2023-03-13T07:40:46;21.55;;;5.65;;
37945;SDS011;23769;52.478;13.448;2023-03-13T07:43:15;19.92;;;5.10;;
37945;SDS011;23769;52.478;13.448;2023-03-13T07:45:52;20.17;;;5.05;;
37945;SDS011;23769;52.478;13.448;2023-03-13T07:48:20;17.27;;;4.53;;
37945;SDS011;23769;52.478;13.448;2023-03-13T07:50:47;18.08;;;4.50;;
37945;SDS011;23769;52.478;13.448;2023-03-13T07:53:15;19.48;;;4.43;;
37945;SDS011;23769;52.478;13.448;2023-03-13T07:55:51;21.17;;;4.05;;
37945;SDS011;23769;52.478;13.448;2023-03-13T07:58:20;19.98;;;4.35;;
37945;SDS011;23769;52.478;13.448;2023-03-13T08:00:47;19.23;;;4.75;;
37945;SDS011;23769;52.478;13.448;2023-03-13T08:03:15;22.13;;;3.80;;
37945;SDS011;23769;52.478;13.448;2023-03-13T08:05:42;15.18;;;4.40;;
37945;SDS011;23769;52.478;13.448;2023-03-13T08:08:09;18.60;;;4.40;;
37945;SDS011;23769;52.478;13.448;2023-03-13T08:10:36;17.50;;;3.85;;
37945;SDS011;23769;52.478;13.448;2023-03-13T08:13:03;23.42;;;4.75;;
37945;SDS011;23769;52.478;13.448;2023-03-13T08:15:32;25.05;;;5.28;;
37945;SDS011;23769;52.478;13.448;2023-03-13T08:17:59;18.92;;;4.30;;
37945;SDS011;23769;52.478;13.448;2023-03-13T08:20:26;16.08;;;4.20;;
37945;SDS011;23769;52.478;13.448;2023-03-13T08:22:54;22.88;;;4.55;;
37945;SDS011;23769;52.478;13.448;2023-03-13T08:25:22;15.88;;;4.25;;
37945;SDS011;23769;52.478;13.448;2023-03-13T08:27:49;18.80;;;3.83;;
37945;SDS011;23769;52.478;13.448;2023-03-13T08:30:16;18.25;;;4.07;;
37945;SDS011;23769;52.478;13.448;2023-03-13T08:32:45;19.65;;;5.10;;
37945;SDS011;23769;52.478;13.448;2023-03-13T08:35:12;16.45;;;3.50;;
37945;SDS011;23769;52.478;13.448;2023-03-13T08:37:41;13.52;;;3.53;;
37945;SDS011;23769;52.478;13.448;2023-03-13T08:40:09;18.45;;;4.00;;
37945;SDS011;23769;52.478;13.448;2023-03-13T08:42:37;17.05;;;4.68;;
37945;SDS011;23769;52.478;13.448;2023-03-13T08:45:05;18.42;;;3.78;;
37945;SDS011;23769;52.478;13.448;2023-03-13T08:47:33;14.90;;;3.85;;
37945;SDS011;23769;52.478;13.448;2023-03-13T08:50:01;15.00;;;4.03;;
37945;SDS011;23769;52.478;13.448;2023-03-13T08:52:29;14.77;;;3.38;;
37945;SDS011;23769;52.478;13.448;2023-03-13T08:54:56;16.45;;;3.40;;
37945;SDS011;23769;52.478;13.448;2023-03-13T08:57:23;15.60;;;3.75;;
37945;SDS011;23769;52.478;13.448;2023-03-13T08:59:50;14.95;;;3.42;;
37945;SDS011;23769;52.478;13.448;2023-03-13T09:02:17;15.05;;;3.90;;
37945;SDS011;23769;52.478;13.448;2023-03-13T09:04:45;16.25;;;3.92;;
37945;SDS011;23769;52.478;13.448;2023-03-13T09:07:14;13.05;;;4.38;;
37945;SDS011;23769;52.478;13.448;2023-03-13T09:09:42;14.82;;;4.18;;
37945;SDS011;23769;52.478;13.448;2023-03-13T09:12:09;16.70;;;4.20;;
37945;SDS011;23769;52.478;13.448;2023-03-13T09:14:39;13.70;;;3.50;;
37945;SDS011;23769;52.478;13.448;2023-03-13T09:17:07;15.18;;;3.33;;
37945;SDS011;23769;52.478;13.448;2023-03-13T09:19:34;16.85;;;4.35;;
37945;SDS011;23769;52.478;13.448;2023-03-13T09:22:01;17.02;;;4.32;;
37945;SDS011;23769;52.478;13.448;2023-03-13T09:24:29;15.75;;;3.33;;
37945;SDS011;23769;52.478;13.448;2023-03-13T09:26:57;13.05;;;3.35;;
37945;SDS011;23769;52.478;13.448;2023-03-13T09:29:24;14.00;;;3.70;;
37945;SDS011;23769;52.478;13.448;2023-03-13T09:31:51;12.15;;;3.00;;
37945;SDS011;23769;52.478;13.448;2023-03-13T09:34:18;10.63;;;3.28;;
37945;SDS011;23769;52.478;13.448;2023-03-13T09:36:47;12.45;;;3.08;;
37945;SDS011;23769;52.478;13.448;2023-03-13T09:39:14;13.00;;;3.42;;
37945;SDS011;23769;52.478;13.448;2023-03-13T09:41:45;9.68;;;3.03;;
37945;SDS011;23769;52.478;13.448;2023-03-13T09:44:14;10.25;;;3.20;;
37945;SDS011;23769;52.478;13.448;2023-03-13T09:46:44;20.98;;;7.70;;
37945;SDS011;23769;52.478;13.448;2023-03-13T09:49:15;15.43;;;4.88;;
37945;SDS011;23769;52.478;13.448;2023-03-13T09:51:49;16.40;;;3.42;;
37945;SDS011;23769;52.478;13.448;2023-03-13T09:54:21;11.93;;;3.60;;
37945;SDS011;23769;52.478;13.448;2023-03-13T09:56:51;9.57;;;3.10;;
37945;SDS011;23769;52.478;13.448;2023-03-13T09:59:21;10.60;;;2.95;;
37945;SDS011;23769;52.478;13.448;2023-03-13T10:01:48;10.68;;;2.75;;
37945;SDS011;23769;52.478;13.448;2023-03-13T10:04:24;8.90;;;2.97;;
37945;SDS011;23769;52.478;13.448;2023-03-13T10:06:53;8.60;;;2.72;;
37945;SDS011;23769;52.478;13.448;2023-03-13T10:09:22;9.30;;;2.50;;
37945;SDS011;23769;52.478;13.448;2023-03-13T10:11:53;11.50;;;3.03;;
37945;SDS011;23769;52.478;13.448;2023-03-13T10:14:26;6.13;;;2.47;;
37945;SDS011;23769;52.478;13.448;2023-03-13T10:16:55;10.13;;;2.50;;
37945;SDS011;23769;52.478;13.448;2023-03-13T10:19:25;9.15;;;2.85;;
37945;SDS011;23769;52.478;13.448;2023-03-13T10:21:53;11.40;;;2.78;;
37945;SDS011;23769;52.478;13.448;2023-03-13T10:24:26;10.45;;;3.17;;
37945;SDS011;23769;52.478;13.448;2023-03-13T10:26:57;9.30;;;2.65;;
37945;SDS011;23769;52.478;13.448;2023-03-13T10:29:25;10.05;;;2.40;;
37945;SDS011;23769;52.478;13.448;2023-03-13T10:31:56;6.03;;;2.30;;
37945;SDS011;23769;52.478;13.448;2023-03-13T10:34:24;8.30;;;2.80;;
37945;SDS011;23769;52.478;13.448;2023-03-13T10:36:56;5.47;;;1.90;;
37945;SDS011;23769;52.478;13.448;2023-03-13T10:39:25;9.82;;;2.50;;
37945;SDS011;23769;52.478;13.448;2023-03-13T10:41:55;10.45;;;2.38;;
37945;SDS011;23769;52.478;13.448;2023-03-13T10:44:29;7.97;;;2.30;;
37945;SDS011;23769;52.478;13.448;2023-03-13T10:46:58;9.20;;;2.40;;
37945;SDS011;23769;52.478;13.448;2023-03-13T10:49:26;8.23;;;2.72;;
37945;SDS011;23769;52.478;13.448;2023-03-13T10:51:53;6.88;;;2.80;;
37945;SDS011;23769;52.478;13.448;2023-03-13T10:54:22;7.93;;;4.30;;
37945;SDS011;23769;52.478;13.448;2023-03-13T10:56:50;8.57;;;4.65;;
37945;SDS011;23769;52.478;13.448;2023-03-13T10:59:21;7.03;;;3.08;;
37945;SDS011;23769;52.478;13.448;2023-03-13T11:01:50;6.10;;;2.60;;
37945;SDS011;23769;52.478;13.448;2023-03-13T11:04:19;8.88;;;2.55;;
37945;SDS011;23769;52.478;13.448;2023-03-13T11:06:49;7.60;;;1.73;;
37945;SDS011;23769;52.478;13.448;2023-03-13T11:09:17;7.70;;;2.05;;
37945;SDS011;23769;52.478;13.448;2023-03-13T11:11:45;6.85;;;2.50;;
37945;SDS011;23769;52.478;13.448;2023-03-13T11:14:14;8.43;;;2.30;;
37945;SDS011;23769;52.478;13.448;2023-03-13T11:16:44;6.30;;;1.67;;
37945;SDS011;23769;52.478;13.448;2023-03-13T11:19:21;6.47;;;1.65;;
37945;SDS011;23769;52.478;13.448;2023-03-13T11:21:55;4.22;;;1.50;;
37945;SDS011;23769;52.478;13.448;2023-03-13T11:24:27;7.78;;;1.63;;
37945;SDS011;23769;52.478;13.448;2023-03-13T11:26:58;3.45;;;1.90;;
37945;SDS011;23769;52.478;13.448;2023-03-13T11:29:28;4.15;;;1.73;;
37945;SDS011;23769;52.478;13.448;2023-03-13T11:32:01;4.57;;;1.42;;
37945;SDS011;23769;52.478;13.448;2023-03-13T11:34:32;4.68;;;2.25;;
37945;SDS011;23769;52.478;13.448;2023-03-13T11:37:02;4.78;;;2.00;;
37945;SDS011;23769;52.478;13.448;2023-03-13T11:39:36;3.47;;;1.75;;
37945;SDS011;23769;52.478;13.448;2023-03-13T11:42:08;5.82;;;2.38;;
37945;SDS011;23769;52.478;13.448;2023-03-13T11:44:40;4.57;;;1.50;;
37945;SDS011;23769;52.478;13.448;2023-03-13T11:47:13;6.20;;;1.50;;
37945;SDS011;23769;52.478;13.448;2023-03-13T11:49:52;3.25;;;1.55;;
37945;SDS011;23769;52.478;13.448;2023-03-13T11:52:27;2.78;;;1.30;;
37945;SDS011;23769;52.478;13.448;2023-03-13T11:55:02;2.88;;;1.42;;
37945;SDS011;23769;52.478;13.448;2023-03-13T11:57:36;6.25;;;2.25;;
37945;SDS011;23769;52.478;13.448;2023-03-13T12:00:17;3.88;;;1.73;;
37945;SDS011;23769;52.478;13.448;2023-03-13T12:02:48;4.10;;;1.58;;
37945;SDS011;23769;52.478;13.448;2023-03-13T12:05:18;2.65;;;1.50;;
37945;SDS011;23769;52.478;13.448;2023-03-13T12:07:47;3.60;;;1.95;;
37945;SDS011;23769;52.478;13.448;2023-03-13T12:10:17;2.40;;;0.93;;
37945;SDS011;23769;52.478;13.448;2023-03-13T12:12:45;3.47;;;1.50;;
37945;SDS011;23769;52.478;13.448;2023-03-13T12:15:15;2.17;;;1.23;;
37945;SDS011;23769;52.478;13.448;2023-03-13T12:17:45;4.85;;;1.55;;
37945;SDS011;23769;52.478;13.448;2023-03-13T12:20:16;4.32;;;1.50;;
37945;SDS011;23769;52.478;13.448;2023-03-13T12:22:47;2.92;;;1.45;;
37945;SDS011;23769;52.478;13.448;2023-03-13T12:25:20;2.70;;;1.63;;
37945;SDS011;23769;52.478;13.448;2023-03-13T12:27:50;3.72;;;1.40;;
37945;SDS011;23769;52.478;13.448;2023-03-13T12:30:20;2.35;;;1.20;;
37945;SDS011;23769;52.478;13.448;2023-03-13T12:32:51;3.25;;;1.30;;
37945;SDS011;23769;52.478;13.448;2023-03-13T12:35:23;3.78;;;1.20;;
37945;SDS011;23769;52.478;13.448;2023-03-13T12:37:57;3.05;;;1.25;;
37945;SDS011;23769;52.478;13.448;2023-03-13T12:40:26;2.17;;;1.30;;
37945;SDS011;23769;52.478;13.448;2023-03-13T12:42:57;1.52;;;1.05;;
37945;SDS011;23769;52.478;13.448;2023-03-13T12:45:29;1.75;;;1.10;;
37945;SDS011;23769;52.478;13.448;2023-03-13T12:50:47;3.00;;;1.10;;
37945;SDS011;23769;52.478;13.448;2023-03-13T12:53:26;5.38;;;1.60;;
37945;SDS011;23769;52.478;13.448;2023-03-13T12:56:01;3.53;;;1.52;;
37945;SDS011;23769;52.478;13.448;2023-03-13T12:58:38;2.65;;;1.38;;
37945;SDS011;23769;52.478;13.448;2023-03-13T13:01:09;3.75;;;1.20;;
37945;SDS011;23769;52.478;13.448;2023-03-13T13:03:42;3.05;;;1.30;;
37945;SDS011;23769;52.478;13.448;2023-03-13T13:06:13;5.28;;;2.03;;
37945;SDS011;23769;52.478;13.448;2023-03-13T13:08:42;2.85;;;1.15;;
37945;SDS011;23769;52.478;13.448;2023-03-13T13:13:58;2.25;;;1.20;;
37945;SDS011;23769;52.478;13.448;2023-03-13T13:16:26;4.55;;;1.60;;
37945;SDS011;23769;52.478;13.448;2023-03-13T13:18:54;3.08;;;1.50;;
37945;SDS011;23769;52.478;13.448;2023-03-13T13:21:21;3.50;;;1.50;;
37945;SDS011;23769;52.478;13.448;2023-03-13T13:23:52;5.13;;;2.10;;
37945;SDS011;23769;52.478;13.448;2023-03-13T13:31:57;1.75;;;1.33;;
37945;SDS011;23769;52.478;13.448;2023-03-13T13:37:25;4.57;;;1.50;;
37945;SDS011;23769;52.478;13.448;2023-03-13T13:40:07;2.20;;;1.08;;
37945;SDS011;23769;52.478;13.448;2023-03-13T13:42:36;5.40;;;1.60;;
37945;SDS011;23769;52.478;13.448;2023-03-13T13:45:19;2.05;;;1.20;;
37945;SDS011;23769;52.478;13.448;2023-03-13T13:47:47;2.65;;;1.52;;
37945;SDS011;23769;52.478;13.448;2023-03-13T13:50:16;2.45;;;1.48;;
37945;SDS011;23769;52.478;13.448;2023-03-13T13:52:43;3.97;;;1.23;;
37945;SDS011;23769;52.478;13.448;2023-03-13T13:55:41;3.65;;;1.80;;
37945;SDS011;23769;52.478;13.448;2023-03-13T13:58:13;5.95;;;2.80;;
37945;SDS011;23769;52.478;13.448;2023-03-13T14:00:43;4.10;;;1.30;;
37945;SDS011;23769;52.478;13.448;2023-03-13T14:03:18;5.78;;;1.95;;
37945;SDS011;23769;52.478;13.448;2023-03-13T14:05:46;3.25;;;1.30;;
37945;SDS011;23769;52.478;13.448;2023-03-13T14:08:15;2.78;;;1.10;;
37945;SDS011;23769;52.478;13.448;2023-03-13T14:10:45;2.00;;;1.58;;
37945;SDS011;23769;52.478;13.448;2023-03-13T14:13:15;1.45;;;1.00;;
37945;SDS011;23769;52.478;13.448;2023-03-13T14:15:43;4.43;;;1.35;;
37945;SDS011;23769;52.478;13.448;2023-03-13T14:18:12;4.43;;;2.10;;
37945;SDS011;23769;52.478;13.448;2023-03-13T14:20:50;4.93;;;1.75;;
37945;SDS011;23769;52.478;13.448;2023-03-13T14:23:27;8.07;;;1.83;;
37945;SDS011;23769;52.478;13.448;2023-03-13T14:25:56;10.05;;;1.52;;
37945;SDS011;23769;52.478;13.448;2023-03-13T14:28:23;3.50;;;1.40;;
37945;SDS011;23769;52.478;13.448;2023-03-13T14:30:51;6.55;;;2.20;;
37945;SDS011;23769;52.478;13.448;2023-03-13T14:33:19;3.55;;;1.30;;
37945;SDS011;23769;52.478;13.448;2023-03-13T14:35:46;6.25;;;1.70;;
37945;SDS011;23769;52.478;13.448;2023-03-13T14:38:15;2.45;;;1.30;;
37945;SDS011;23769;52.478;13.448;2023-03-13T14:40:42;3.88;;;1.60;;
37945;SDS011;23769;52.478;13.448;2023-03-13T14:43:17;1.83;;;0.90;;
37945;SDS011;23769;52.478;13.448;2023-03-13T14:45:45;2.75;;;1.67;;
37945;SDS011;23769;52.478;13.448;2023-03-13T14:48:13;2.20;;;1.15;;
37945;SDS011;23769;52.478;13.448;2023-03-13T14:50:42;3.70;;;1.60;;
37945;SDS011;23769;52.478;13.448;2023-03-13T14:53:10;4.30;;;1.20;;
37945;SDS011;23769;52.478;13.448;2023-03-13T14:55:38;2.33;;;1.30;;
37945;SDS011;23769;52.478;13.448;2023-03-13T14:58:22;2.33;;;1.60;;
37945;SDS011;23769;52.478;13.448;2023-03-13T15:00:51;4.55;;;1.45;;
37945;SDS011;23769;52.478;13.448;2023-03-13T15:03:20;3.20;;;1.45;;
37945;SDS011;23769;52.478;13.448;2023-03-13T15:05:52;1.85;;;1.13;;
37945;SDS011;23769;52.478;13.448;2023-03-13T15:08:27;2.60;;;1.20;;
37945;SDS011;23769;52.478;13.448;2023-03-13T15:10:55;7.18;;;1.38;;
37945;SDS011;23769;52.478;13.448;2023-03-13T15:13:25;3.78;;;1.40;;